createdAt,value
2018-12-04T00:01:31.436Z,9.09
2018-12-04T00:04:04.627Z,9.05
2018-12-04T00:06:37.252Z,9.24
2018-12-04T00:09:09.699Z,9.21
2018-12-04T00:11:42.437Z,9.17
2018-12-04T00:14:13.164Z,9.08
2018-12-04T00:16:44.333Z,9.05
2018-12-04T00:19:15.296Z,9.06
2018-12-04T00:21:48.490Z,9.19
2018-12-04T00:24:21.505Z,9.32
2018-12-04T00:26:54.443Z,9.26
2018-12-04T00:29:26.055Z,9.32
2018-12-04T00:31:56.899Z,9.32
2018-12-04T00:34:28.127Z,9.56
2018-12-04T00:37:00.406Z,9.49
2018-12-04T00:39:33.441Z,9.47
2018-12-04T00:42:04.596Z,9.40
2018-12-04T00:44:35.662Z,9.44
2018-12-04T00:47:10.984Z,9.41
2018-12-04T00:49:44.477Z,9.36
2018-12-04T00:52:15.609Z,9.36
2018-12-04T00:54:46.558Z,9.28
2018-12-04T00:57:17.273Z,9.32
2018-12-04T00:59:48.005Z,9.19
2018-12-04T01:02:18.744Z,9.20
2018-12-04T01:04:51.587Z,9.15
2018-12-04T01:07:22.521Z,9.12
2018-12-04T01:09:53.609Z,9.03
2018-12-04T01:12:26.610Z,9.07
2018-12-04T01:14:58.183Z,9.10
2018-12-04T01:20:34.797Z,8.99
2018-12-04T01:23:06.647Z,9.01
2018-12-04T01:25:40.472Z,8.94
2018-12-04T01:28:11.264Z,8.93
2018-12-04T01:30:42.480Z,8.97
2018-12-04T01:33:15.814Z,8.88
2018-12-04T01:35:51.141Z,8.82
2018-12-04T01:38:22.850Z,8.77
2018-12-04T01:40:55.643Z,8.71
2018-12-04T01:43:26.841Z,8.72
2018-12-04T01:45:59.856Z,8.68
2018-12-04T01:48:30.624Z,8.68
2018-12-04T01:51:03.915Z,8.69
2018-12-04T01:53:36.990Z,8.70
2018-12-04T01:56:07.727Z,8.64
2018-12-04T01:58:38.871Z,8.62
2018-12-04T02:01:11.854Z,8.63
2018-12-04T02:03:44.774Z,8.58
2018-12-04T02:06:16.818Z,8.56
2018-12-04T02:08:49.585Z,8.51
2018-12-04T02:11:20.323Z,8.44
2018-12-04T02:13:51.088Z,8.45
2018-12-04T02:27:05.127Z,8.36
2018-12-04T02:29:38.830Z,8.32
2018-12-04T02:32:10.118Z,8.21
2018-12-04T02:34:40.924Z,8.20
2018-12-04T02:37:13.528Z,8.17
2018-12-04T02:39:46.924Z,8.17
2018-12-04T02:42:25.920Z,8.15
2018-12-04T02:45:37.025Z,8.12
2018-12-04T02:48:07.955Z,8.18
2018-12-04T02:50:39.738Z,8.16
2018-12-04T02:53:12.464Z,8.17
2018-12-04T02:55:43.733Z,8.18
2018-12-04T02:58:14.630Z,8.16
2018-12-04T03:00:44.769Z,8.07
2018-12-04T03:03:14.786Z,8.10
2018-12-04T03:05:45.706Z,8.07
2018-12-04T03:08:16.284Z,8.12
2018-12-04T03:10:47.364Z,8.10
2018-12-04T03:13:19.735Z,8.14
2018-12-04T03:15:54.617Z,8.11
2018-12-04T03:18:24.814Z,8.10
2018-12-04T03:20:54.925Z,8.09
2018-12-04T03:23:25.803Z,8.07
2018-12-04T03:25:55.740Z,8.03
2018-12-04T03:28:26.937Z,8.06
2018-12-04T03:30:57.941Z,8.02
2018-12-04T03:33:40.970Z,8.07
2018-12-04T03:36:10.887Z,8.09
2018-12-04T03:38:41.845Z,8.11
2018-12-04T03:41:16.193Z,6.99
2018-12-04T03:43:46.009Z,8.10
2018-12-04T03:46:16.901Z,8.10
2018-12-04T03:48:53.933Z,8.18
2018-12-04T03:51:24.013Z,8.13
2018-12-04T03:53:55.128Z,8.15
2018-12-04T03:56:26.112Z,8.17
2018-12-04T03:58:56.330Z,8.14
2018-12-04T04:01:27.271Z,8.01
2018-12-04T04:03:57.796Z,8.05
2018-12-04T04:06:27.247Z,7.96
2018-12-04T04:08:58.207Z,8.15
2018-12-04T04:11:27.560Z,8.14
2018-12-04T04:13:58.941Z,8.12
2018-12-04T04:16:35.741Z,8.14
2018-12-04T04:19:10.075Z,8.13
2018-12-04T04:21:40.205Z,8.11
2018-12-04T04:24:10.110Z,8.06
2018-12-04T04:26:41.118Z,8.02
2018-12-04T04:29:11.312Z,8.12
2018-12-04T04:31:42.141Z,8.11
2018-12-04T04:34:12.111Z,8.15
2018-12-04T04:36:43.317Z,8.21
2018-12-04T04:39:14.124Z,8.27
2018-12-04T04:41:47.202Z,8.22
2018-12-04T04:44:18.989Z,8.25
2018-12-04T04:46:57.890Z,8.22
2018-12-04T04:49:27.394Z,8.24
2018-12-04T04:51:59.299Z,8.28
2018-12-04T04:54:30.103Z,8.26
2018-12-04T04:57:00.277Z,8.27
2018-12-04T04:59:30.267Z,8.22
2018-12-04T05:02:03.133Z,8.18
2018-12-04T05:04:37.347Z,8.20
2018-12-04T05:07:09.734Z,8.22
2018-12-04T05:09:40.402Z,8.29
2018-12-04T05:12:11.661Z,8.30
2018-12-04T05:14:42.390Z,8.32
2018-12-04T05:17:18.718Z,8.32
2018-12-04T05:19:49.268Z,8.31
2018-12-04T05:22:19.496Z,8.42
2018-12-04T05:24:50.351Z,8.39
2018-12-04T05:27:23.523Z,8.35
2018-12-04T05:29:54.346Z,8.34
2018-12-04T05:32:24.498Z,8.47
2018-12-04T05:34:55.511Z,8.42
2018-12-04T05:37:26.052Z,8.40
2018-12-04T05:39:56.629Z,8.41
2018-12-04T05:42:27.486Z,8.38
2018-12-04T05:45:00.564Z,8.34
2018-12-04T05:47:31.428Z,8.32
2018-12-04T05:50:02.581Z,8.32
2018-12-04T05:52:32.449Z,8.28
2018-12-04T05:55:04.221Z,8.23
2018-12-04T05:57:34.646Z,8.23
2018-12-04T06:00:06.055Z,8.23
2018-12-04T06:02:35.533Z,8.15
2018-12-04T06:05:07.092Z,8.18
2018-12-04T06:07:36.763Z,8.12
2018-12-04T06:10:08.682Z,8.14
2018-12-04T06:12:39.454Z,8.03
2018-12-04T06:15:10.068Z,8.04
2018-12-04T06:17:40.701Z,8.01
2018-12-04T06:20:10.658Z,8.05
2018-12-04T06:22:41.810Z,7.96
2018-12-04T06:25:14.091Z,7.99
2018-12-04T06:27:48.373Z,8.00
2018-12-04T06:30:19.726Z,8.01
2018-12-04T06:32:49.811Z,8.02
2018-12-04T06:35:20.954Z,8.06
2018-12-04T06:37:50.747Z,7.92
2018-12-04T06:40:21.569Z,8.07
2018-12-04T06:42:52.755Z,8.08
2018-12-04T06:45:22.758Z,8.05
2018-12-04T06:47:53.820Z,8.12
2018-12-04T06:50:23.821Z,8.14
2018-12-04T06:52:54.761Z,8.15
2018-12-04T06:55:27.073Z,8.12
2018-12-04T06:57:59.455Z,8.20
2018-12-04T07:00:35.753Z,8.22
2018-12-04T07:03:13.653Z,8.16
2018-12-04T07:05:49.048Z,8.20
2018-12-04T07:08:19.837Z,8.23
2018-12-04T07:10:50.817Z,8.21
2018-12-04T07:13:20.821Z,8.19
2018-12-04T07:15:52.073Z,8.27
2018-12-04T07:18:22.830Z,8.21
2018-12-04T07:20:52.980Z,8.26
2018-12-04T07:23:24.085Z,8.32
2018-12-04T07:25:55.014Z,8.37
2018-12-04T07:28:25.937Z,8.37
2018-12-04T07:30:56.660Z,8.38
2018-12-04T07:33:30.802Z,8.39
2018-12-04T07:36:12.830Z,8.44
2018-12-04T07:38:43.047Z,8.39
2018-12-04T07:41:13.806Z,8.48
2018-12-04T07:43:44.125Z,8.48
2018-12-04T07:46:15.078Z,8.45
2018-12-04T07:51:45.197Z,8.49
2018-12-04T07:54:17.282Z,8.48
2018-12-04T07:56:47.144Z,8.44
2018-12-04T07:59:17.957Z,8.53
2018-12-04T08:01:49.177Z,8.52
2018-12-04T08:04:19.326Z,8.43
2018-12-04T08:06:50.066Z,8.44
2018-12-04T08:09:21.093Z,8.42
2018-12-04T08:11:51.202Z,8.41
2018-12-04T08:14:25.045Z,8.51
2018-12-04T08:16:56.108Z,8.61
2018-12-04T08:19:27.165Z,8.58
2018-12-04T08:21:57.401Z,8.56
2018-12-04T08:24:27.432Z,8.60
2018-12-04T08:26:56.927Z,8.00
2018-12-04T08:29:27.459Z,8.63
2018-12-04T08:31:58.278Z,8.65
2018-12-04T08:34:27.625Z,8.81
2018-12-04T08:36:59.446Z,8.80
2018-12-04T08:39:30.022Z,8.71
2018-12-04T08:45:03.773Z,8.62
2018-12-04T08:47:35.332Z,8.66
2018-12-04T08:50:08.977Z,8.63
2018-12-04T08:52:39.490Z,8.69
2018-12-04T08:55:09.397Z,8.76
2018-12-04T08:57:40.490Z,8.79
2018-12-04T09:00:10.340Z,8.81
2018-12-04T09:02:41.598Z,8.86
2018-12-04T09:05:12.478Z,8.91
2018-12-04T09:07:42.734Z,8.88
2018-12-04T09:10:13.401Z,8.88
2018-12-04T09:12:44.337Z,8.82
2018-12-04T09:15:15.158Z,8.74
2018-12-04T09:17:50.169Z,8.72
2018-12-04T09:20:23.358Z,8.78
2018-12-04T09:22:53.546Z,8.73
2018-12-04T09:25:23.451Z,8.76
2018-12-04T09:27:55.814Z,8.77
2018-12-04T09:30:25.510Z,8.69
2018-12-04T09:32:54.974Z,8.73
2018-12-04T09:35:26.646Z,8.70
2018-12-04T09:37:57.474Z,8.66
2018-12-04T09:40:27.548Z,8.69
2018-12-04T09:43:04.148Z,8.63
2018-12-04T09:45:32.810Z,8.63
2018-12-04T09:48:03.409Z,8.64
2018-12-04T09:50:33.589Z,8.60
2018-12-04T09:53:04.555Z,8.59
2018-12-04T09:55:35.052Z,8.58
2018-12-04T09:58:05.556Z,8.57
2018-12-04T10:00:39.452Z,8.54
2018-12-04T10:03:09.728Z,8.58
2018-12-04T10:05:39.779Z,8.62
2018-12-04T10:08:12.021Z,8.56
2018-12-04T10:10:41.831Z,8.50
2018-12-04T10:16:12.885Z,8.51
2018-12-04T10:18:47.715Z,8.52
2018-12-04T10:21:16.802Z,8.58
2018-12-04T10:23:48.002Z,8.62
2018-12-04T10:26:19.008Z,8.70
2018-12-04T10:28:48.690Z,8.74
2018-12-04T10:31:19.726Z,8.82
2018-12-04T10:33:53.506Z,8.82
2018-12-04T10:36:23.700Z,8.77
2018-12-04T10:38:54.861Z,8.78
2018-12-04T10:41:24.284Z,8.75
2018-12-04T10:43:59.648Z,8.69
2018-12-04T10:46:30.731Z,8.65
2018-12-04T10:49:00.849Z,8.68
2018-12-04T10:51:31.098Z,8.65
2018-12-04T10:54:02.970Z,8.67
2018-12-04T10:56:33.982Z,8.66
2018-12-04T10:59:04.082Z,8.77
2018-12-04T11:01:39.172Z,8.85
2018-12-04T11:04:10.903Z,8.97
2018-12-04T11:09:41.513Z,8.92
2018-12-04T11:12:13.768Z,8.90
2018-12-04T11:14:43.310Z,8.89
2018-12-04T11:17:14.097Z,8.90
2018-12-04T11:19:47.783Z,8.85
2018-12-04T11:22:19.099Z,8.83
2018-12-04T11:24:49.082Z,8.80
2018-12-04T11:27:19.310Z,8.83
2018-12-04T11:29:51.808Z,8.76
2018-12-04T11:32:21.989Z,8.57
2018-12-04T11:34:56.035Z,8.58
2018-12-04T11:37:27.000Z,8.53
2018-12-04T11:40:01.002Z,8.54
2018-12-04T11:42:30.345Z,8.49
2018-12-04T11:45:02.115Z,8.44
2018-12-04T11:47:35.024Z,8.43
2018-12-04T11:50:06.896Z,8.42
2018-12-04T11:52:37.074Z,8.39
2018-12-04T11:55:07.937Z,8.35
2018-12-04T11:57:38.198Z,8.30
2018-12-04T12:00:16.494Z,8.41
2018-12-04T12:02:48.037Z,8.49
2018-12-04T12:05:22.246Z,8.37
2018-12-04T12:07:52.081Z,8.48
2018-12-04T12:10:27.757Z,8.49
2018-12-04T12:13:02.020Z,8.57
2018-12-04T12:15:37.141Z,8.62
2018-12-04T12:18:09.367Z,8.61
2018-12-04T12:20:41.259Z,8.60
2018-12-04T12:23:11.333Z,8.59
2018-12-04T12:25:41.304Z,8.62
2018-12-04T12:28:14.461Z,8.52
2018-12-04T12:30:46.113Z,8.55
2018-12-04T12:33:20.296Z,8.55
2018-12-04T12:35:51.139Z,8.28
2018-12-04T12:38:21.359Z,8.09
2018-12-04T12:40:52.384Z,7.90
2018-12-04T12:43:22.337Z,7.73
2018-12-04T12:45:56.448Z,7.74
2018-12-04T12:48:27.940Z,7.66
2018-12-04T12:50:58.390Z,7.72
2018-12-04T12:53:27.910Z,7.66
2018-12-04T12:55:59.225Z,7.69
2018-12-04T12:58:28.675Z,7.74
2018-12-04T13:00:58.496Z,7.76
2018-12-04T13:03:27.949Z,7.75
2018-12-04T13:05:59.607Z,7.71
2018-12-04T13:08:32.605Z,7.73
2018-12-04T13:11:04.680Z,7.78
2018-12-04T13:13:36.975Z,7.75
2018-12-04T13:16:09.736Z,7.66
2018-12-04T13:18:40.638Z,7.66
2018-12-04T13:21:15.177Z,7.65
2018-12-04T13:23:46.415Z,7.38
2018-12-04T13:26:19.530Z,7.49
2018-12-04T13:28:51.021Z,7.52
2018-12-04T13:31:20.836Z,7.47
2018-12-04T13:33:51.419Z,7.39
2018-12-04T13:36:25.362Z,7.44
2018-12-04T13:38:55.562Z,7.46
2018-12-04T13:41:26.789Z,7.47
2018-12-04T13:43:58.019Z,7.52
2018-12-04T13:46:27.615Z,7.47
2018-12-04T13:48:57.725Z,7.36
2018-12-04T13:51:31.357Z,7.12
2018-12-04T13:57:01.010Z,6.87
2018-12-04T13:59:31.690Z,6.91
2018-12-04T14:02:01.647Z,6.88
2018-12-04T14:04:36.800Z,6.95
2018-12-04T14:07:12.262Z,6.83
2018-12-04T14:09:45.933Z,6.86
2018-12-04T14:12:15.923Z,6.82
2018-12-04T14:14:46.589Z,6.77
2018-12-04T14:17:16.738Z,6.79
2018-12-04T14:19:50.615Z,6.80
2018-12-04T14:22:20.838Z,6.78
2018-12-04T14:24:52.043Z,6.83
2018-12-04T14:27:22.574Z,6.85
2018-12-04T14:29:53.048Z,6.87
2018-12-04T14:32:22.949Z,6.83
2018-12-04T14:34:54.274Z,6.82
2018-12-04T14:37:23.825Z,6.85
2018-12-04T14:39:55.619Z,6.86
2018-12-04T14:42:30.365Z,6.78
2018-12-04T14:45:02.213Z,6.71
2018-12-04T14:47:33.806Z,6.73
2018-12-04T14:50:07.567Z,6.76
2018-12-04T14:52:38.769Z,6.76
2018-12-04T14:55:10.885Z,6.77
2018-12-04T14:57:40.524Z,6.73
2018-12-04T15:00:12.137Z,6.70
2018-12-04T15:02:42.033Z,6.68
2018-12-04T15:05:13.013Z,6.66
2018-12-04T15:07:44.037Z,6.64
2018-12-04T15:10:15.517Z,6.60
2018-12-04T15:12:48.840Z,6.60
2018-12-04T15:15:25.714Z,6.59
2018-12-04T15:18:01.875Z,6.51
2018-12-04T15:20:32.618Z,6.50
2018-12-04T15:23:03.428Z,6.51
2018-12-04T15:25:34.484Z,6.49
2018-12-04T15:28:04.046Z,6.42
2018-12-04T15:30:37.168Z,6.42
2018-12-04T15:33:08.332Z,6.43
2018-12-04T15:35:40.193Z,6.41
2018-12-04T15:38:12.993Z,6.40
2018-12-04T15:40:45.243Z,6.43
2018-12-04T15:43:16.353Z,6.43
2018-12-04T15:45:46.320Z,6.42
2018-12-04T15:48:17.310Z,6.35
2018-12-04T15:50:47.889Z,6.21
2018-12-04T15:53:21.232Z,6.12
2018-12-04T15:55:52.233Z,6.11
2018-12-04T15:58:22.216Z,6.15
2018-12-04T16:00:53.374Z,6.21
2018-12-04T16:03:23.121Z,6.18
2018-12-04T16:06:00.021Z,6.05
2018-12-04T16:08:31.352Z,6.01
2018-12-04T16:14:01.184Z,6.09
2018-12-04T16:16:30.588Z,6.05
2018-12-04T16:19:01.019Z,5.89
2018-12-04T16:21:31.345Z,5.76
2018-12-04T16:24:02.474Z,5.80
2018-12-04T16:26:33.373Z,5.82
2018-12-04T16:29:04.320Z,5.75
2018-12-04T16:31:34.345Z,5.74
2018-12-04T16:34:08.384Z,5.85
2018-12-04T16:36:39.531Z,5.84
2018-12-04T16:39:11.910Z,5.82
2018-12-04T16:41:43.468Z,5.72
2018-12-04T16:44:13.464Z,5.70
2018-12-04T16:46:47.404Z,5.74
2018-12-04T16:49:19.200Z,5.63
2018-12-04T16:51:48.589Z,5.59
2018-12-04T16:54:19.433Z,5.63
2018-12-04T16:56:49.513Z,5.55
2018-12-04T16:59:21.552Z,5.58
2018-12-04T17:01:53.487Z,5.59
2018-12-04T17:04:28.686Z,5.62
2018-12-04T17:07:01.613Z,5.61
2018-12-04T17:09:33.928Z,5.61
2018-12-04T17:12:05.497Z,5.65
2018-12-04T17:14:37.432Z,5.76
2018-12-04T17:17:07.925Z,5.75
2018-12-04T17:19:37.690Z,5.73
2018-12-04T17:22:08.666Z,5.77
2018-12-04T17:24:42.487Z,5.75
2018-12-04T17:27:19.066Z,5.62
2018-12-04T17:29:49.829Z,5.54
2018-12-04T17:32:20.712Z,5.57
2018-12-04T17:34:51.689Z,5.60
2018-12-04T17:37:23.048Z,5.61
2018-12-04T17:39:54.091Z,5.54
2018-12-04T17:42:23.610Z,5.56
2018-12-04T17:44:53.693Z,5.42
2018-12-04T17:47:24.606Z,5.37
2018-12-04T17:49:54.868Z,5.26
2018-12-04T17:52:26.108Z,5.26
2018-12-04T17:54:56.332Z,5.28
2018-12-04T17:57:26.721Z,5.27
2018-12-04T17:59:57.713Z,5.23
2018-12-04T18:02:28.010Z,5.17
2018-12-04T18:04:58.774Z,5.12
2018-12-04T18:07:28.268Z,5.02
2018-12-04T18:09:59.690Z,4.96
2018-12-04T18:12:30.525Z,4.84
2018-12-04T18:15:01.389Z,4.77
2018-12-04T18:17:31.950Z,4.71
2018-12-04T18:20:03.364Z,4.70
2018-12-04T18:22:33.525Z,4.65
2018-12-04T18:25:04.037Z,4.56
2018-12-04T18:27:35.173Z,4.54
2018-12-04T18:30:06.253Z,4.52
2018-12-04T18:32:38.682Z,4.47
2018-12-04T18:35:10.785Z,4.41
2018-12-04T18:37:43.896Z,4.33
2018-12-04T18:40:14.885Z,4.31
2018-12-04T18:42:45.546Z,4.28
2018-12-04T18:45:20.177Z,4.22
2018-12-04T18:47:50.984Z,4.19
2018-12-04T18:50:24.459Z,4.04
2018-12-04T18:52:56.961Z,4.03
2018-12-04T18:55:32.012Z,4.06
2018-12-04T18:58:04.134Z,4.00
2018-12-04T19:00:35.148Z,3.92
2018-12-04T19:03:05.305Z,3.93
2018-12-04T19:05:36.189Z,3.91
2018-12-04T19:08:06.226Z,3.91
2018-12-04T19:10:36.499Z,3.92
2018-12-04T19:13:08.801Z,3.91
2018-12-04T19:15:42.974Z,3.84
2018-12-04T19:18:17.238Z,3.82
2018-12-04T19:20:49.482Z,3.79
2018-12-04T19:23:19.034Z,3.76
2018-12-04T19:25:52.502Z,3.76
2018-12-04T19:28:23.339Z,3.70
2018-12-04T19:30:53.737Z,3.72
2018-12-04T19:33:24.788Z,3.71
2018-12-04T19:35:55.388Z,3.68
2018-12-04T19:38:25.331Z,3.66
2018-12-04T19:40:58.085Z,3.67
2018-12-04T19:43:28.585Z,3.64
2018-12-04T19:46:00.425Z,3.57
2018-12-04T19:48:32.530Z,3.54
2018-12-04T19:51:05.029Z,3.51
2018-12-04T19:53:35.463Z,3.49
2018-12-04T19:56:06.862Z,3.46
2018-12-04T19:58:36.353Z,3.47
2018-12-04T20:01:07.665Z,3.41
2018-12-04T20:03:39.472Z,3.39
2018-12-04T20:06:09.902Z,3.35
2018-12-04T20:08:44.600Z,3.32
2018-12-04T20:11:15.912Z,3.30
2018-12-04T20:13:53.306Z,3.30
2018-12-04T20:16:28.277Z,3.28
2018-12-04T20:18:59.522Z,3.39
2018-12-04T20:21:29.030Z,3.25
2018-12-04T20:23:58.911Z,3.25
2018-12-04T20:26:28.526Z,3.20
2018-12-04T20:29:00.899Z,3.20
2018-12-04T20:31:32.847Z,3.25
2018-12-04T20:34:04.781Z,3.28
2018-12-04T20:36:35.737Z,3.25
2018-12-04T20:39:07.689Z,3.21
2018-12-04T20:41:38.754Z,3.21
2018-12-04T20:44:09.506Z,3.19
2018-12-04T20:46:40.641Z,3.15
2018-12-04T20:49:12.424Z,3.15
2018-12-04T20:51:42.008Z,3.13
2018-12-04T20:57:12.801Z,3.02
2018-12-04T20:59:44.406Z,2.97
2018-12-04T21:02:15.221Z,2.99
2018-12-04T21:04:49.421Z,3.05
2018-12-04T21:07:22.572Z,2.99
2018-12-04T21:12:50.654Z,2.94
2018-12-04T21:15:24.500Z,2.96
2018-12-04T21:17:54.622Z,2.95
2018-12-04T21:20:25.742Z,2.89
2018-12-04T21:22:55.508Z,2.84
2018-12-04T21:25:28.925Z,2.84
2018-12-04T21:28:05.545Z,2.84
2018-12-04T21:30:41.776Z,2.76
2018-12-04T21:33:17.967Z,2.75
2018-12-04T21:35:57.090Z,2.66
2018-12-04T21:38:36.723Z,2.66
2018-12-04T21:43:19.785Z,2.64
2018-12-04T21:45:57.614Z,2.59
2018-12-04T21:48:30.206Z,2.57
2018-12-04T21:51:00.946Z,2.49
2018-12-04T21:53:31.808Z,2.41
2018-12-04T21:56:02.054Z,2.39
2018-12-04T21:58:32.826Z,2.37
2018-12-04T22:01:06.834Z,1.84
2018-12-04T22:03:38.052Z,2.25
2018-12-04T22:06:08.805Z,2.24
2018-12-04T22:08:46.373Z,2.20
2018-12-04T22:11:18.206Z,2.09
2018-12-04T22:13:48.816Z,2.09
2018-12-04T22:16:19.834Z,2.11
2018-12-04T22:18:49.814Z,2.02
2018-12-04T22:21:23.720Z,2.03
2018-12-04T22:23:54.062Z,1.96
2018-12-04T22:26:24.864Z,1.95
2018-12-04T22:29:00.865Z,1.97
2018-12-04T22:31:32.203Z,2.00
2018-12-04T22:34:02.128Z,1.99
2018-12-04T22:36:31.925Z,1.96
2018-12-04T22:39:05.024Z,1.92
2018-12-04T22:41:34.944Z,1.83
2018-12-04T22:44:07.786Z,1.77
2018-12-04T22:46:40.038Z,1.73
2018-12-04T22:49:11.870Z,1.68
2018-12-04T22:51:42.382Z,1.71
2018-12-04T22:54:13.099Z,1.70
2018-12-04T22:56:43.461Z,1.70
2018-12-04T22:59:14.101Z,1.55
2018-12-04T23:01:44.409Z,1.59
2018-12-04T23:04:17.244Z,1.57
2018-12-04T23:06:51.966Z,1.61
2018-12-04T23:09:22.160Z,1.60
2018-12-04T23:11:53.315Z,1.61
2018-12-04T23:14:23.464Z,1.50
2018-12-04T23:16:58.182Z,1.50
2018-12-04T23:19:28.338Z,1.50
2018-12-04T23:21:59.269Z,1.55
2018-12-04T23:24:28.726Z,1.62
2018-12-04T23:27:00.156Z,1.39
2018-12-04T23:32:29.450Z,1.51
2018-12-04T23:34:59.138Z,1.33
2018-12-04T23:37:28.487Z,1.48
2018-12-04T23:40:00.867Z,1.58
2018-12-04T23:42:30.412Z,1.66
2018-12-04T23:45:01.250Z,1.55
2018-12-04T23:47:32.208Z,1.61
2018-12-04T23:50:02.497Z,1.65
2018-12-04T23:52:32.323Z,1.63
2018-12-04T23:55:03.587Z,1.58
